sensor_id;sensor_type;location;lat;lon;timestamp;temperature;humidity
31809;DHT22;18379;48.208;-1.518;2022-08-14T00:02:30;27.30;52.30
31809;DHT22;18379;48.208;-1.518;2022-08-14T00:07:31;27.00;53.40
31809;DHT22;18379;48.208;-1.518;2022-08-14T00:12:40;26.60;53.90
31809;DHT22;18379;48.208;-1.518;2022-08-14T00:17:48;26.40;54.90
31809;DHT22;18379;48.208;-1.518;2022-08-14T00:22:49;26.10;55.60
31809;DHT22;18379;48.208;-1.518;2022-08-14T00:27:50;26.00;56.60
31809;DHT22;18379;48.208;-1.518;2022-08-14T00:32:51;25.80;56.60
31809;DHT22;18379;48.208;-1.518;2022-08-14T00:37:51;25.60;57.70
31809;DHT22;18379;48.208;-1.518;2022-08-14T00:42:52;25.20;59.90
31809;DHT22;18379;48.208;-1.518;2022-08-14T00:47:53;24.90;63.00
31809;DHT22;18379;48.208;-1.518;2022-08-14T00:52:55;24.70;66.40
31809;DHT22;18379;48.208;-1.518;2022-08-14T00:57:58;24.80;68.10
31809;DHT22;18379;48.208;-1.518;2022-08-14T01:03:19;24.90;69.60
31809;DHT22;18379;48.208;-1.518;2022-08-14T01:08:28;24.80;72.50
31809;DHT22;18379;48.208;-1.518;2022-08-14T01:13:35;24.70;73.10
31809;DHT22;18379;48.208;-1.518;2022-08-14T01:18:36;24.60;73.80
31809;DHT22;18379;48.208;-1.518;2022-08-14T01:23:56;24.60;74.90
31809;DHT22;18379;48.208;-1.518;2022-08-14T01:28:58;24.70;76.50
31809;DHT22;18379;48.208;-1.518;2022-08-14T01:34:02;24.40;76.60
31809;DHT22;18379;48.208;-1.518;2022-08-14T01:39:09;24.60;77.40
31809;DHT22;18379;48.208;-1.518;2022-08-14T01:44:13;24.60;76.90
31809;DHT22;18379;48.208;-1.518;2022-08-14T01:49:15;24.60;77.60
31809;DHT22;18379;48.208;-1.518;2022-08-14T01:54:17;24.70;77.50
31809;DHT22;18379;48.208;-1.518;2022-08-14T02:04:31;24.70;76.90
31809;DHT22;18379;48.208;-1.518;2022-08-14T02:09:32;24.80;78.20
31809;DHT22;18379;48.208;-1.518;2022-08-14T02:14:35;24.70;79.70
31809;DHT22;18379;48.208;-1.518;2022-08-14T02:19:37;24.60;80.30
31809;DHT22;18379;48.208;-1.518;2022-08-14T02:24:38;24.60;83.10
31809;DHT22;18379;48.208;-1.518;2022-08-14T02:29:38;24.10;85.00
31809;DHT22;18379;48.208;-1.518;2022-08-14T02:34:41;23.70;88.30
31809;DHT22;18379;48.208;-1.518;2022-08-14T02:39:45;23.30;90.70
31809;DHT22;18379;48.208;-1.518;2022-08-14T02:44:46;23.00;92.00
31809;DHT22;18379;48.208;-1.518;2022-08-14T02:49:48;22.80;93.00
31809;DHT22;18379;48.208;-1.518;2022-08-14T02:54:49;22.80;94.50
31809;DHT22;18379;48.208;-1.518;2022-08-14T02:59:52;22.70;95.30
31809;DHT22;18379;48.208;-1.518;2022-08-14T03:04:53;22.70;95.90
31809;DHT22;18379;48.208;-1.518;2022-08-14T03:09:54;22.70;95.80
31809;DHT22;18379;48.208;-1.518;2022-08-14T03:14:55;22.80;95.80
31809;DHT22;18379;48.208;-1.518;2022-08-14T03:19:56;22.60;96.40
31809;DHT22;18379;48.208;-1.518;2022-08-14T03:24:57;22.50;96.70
31809;DHT22;18379;48.208;-1.518;2022-08-14T03:29:58;22.40;96.90
31809;DHT22;18379;48.208;-1.518;2022-08-14T03:34:59;22.20;97.80
31809;DHT22;18379;48.208;-1.518;2022-08-14T03:40:00;22.10;98.30
31809;DHT22;18379;48.208;-1.518;2022-08-14T03:45:00;21.90;98.70
31809;DHT22;18379;48.208;-1.518;2022-08-14T03:50:01;21.70;99.60
31809;DHT22;18379;48.208;-1.518;2022-08-14T03:55:07;21.50;99.90
31809;DHT22;18379;48.208;-1.518;2022-08-14T04:00:11;21.40;99.90
31809;DHT22;18379;48.208;-1.518;2022-08-14T04:05:12;21.20;99.90
31809;DHT22;18379;48.208;-1.518;2022-08-14T04:10:13;20.90;99.90
31809;DHT22;18379;48.208;-1.518;2022-08-14T04:15:14;20.80;99.90
31809;DHT22;18379;48.208;-1.518;2022-08-14T04:20:15;20.60;99.90
31809;DHT22;18379;48.208;-1.518;2022-08-14T04:25:16;20.50;99.90
31809;DHT22;18379;48.208;-1.518;2022-08-14T04:30:17;20.40;99.90
31809;DHT22;18379;48.208;-1.518;2022-08-14T04:35:18;20.40;99.90
31809;DHT22;18379;48.208;-1.518;2022-08-14T04:40:18;20.60;99.90
31809;DHT22;18379;48.208;-1.518;2022-08-14T04:45:38;20.90;99.90
31809;DHT22;18379;48.208;-1.518;2022-08-14T04:50:50;20.70;99.90
31809;DHT22;18379;48.208;-1.518;2022-08-14T04:55:52;20.50;99.90
31809;DHT22;18379;48.208;-1.518;2022-08-14T05:00:54;20.50;99.90
31809;DHT22;18379;48.208;-1.518;2022-08-14T05:05:57;20.70;99.90
31809;DHT22;18379;48.208;-1.518;2022-08-14T05:11:01;20.90;99.90
31809;DHT22;18379;48.208;-1.518;2022-08-14T05:16:03;20.90;99.90
31809;DHT22;18379;48.208;-1.518;2022-08-14T05:21:07;21.00;99.90
31809;DHT22;18379;48.208;-1.518;2022-08-14T05:26:08;20.90;99.90
31809;DHT22;18379;48.208;-1.518;2022-08-14T05:31:16;21.00;99.90
31809;DHT22;18379;48.208;-1.518;2022-08-14T05:36:17;20.90;99.90
31809;DHT22;18379;48.208;-1.518;2022-08-14T05:41:18;21.00;99.90
31809;DHT22;18379;48.208;-1.518;2022-08-14T05:46:19;21.00;99.90
31809;DHT22;18379;48.208;-1.518;2022-08-14T05:51:24;20.80;99.90
31809;DHT22;18379;48.208;-1.518;2022-08-14T05:56:25;20.80;99.90
31809;DHT22;18379;48.208;-1.518;2022-08-14T06:01:26;20.70;99.90
31809;DHT22;18379;48.208;-1.518;2022-08-14T06:06:27;20.50;99.90
31809;DHT22;18379;48.208;-1.518;2022-08-14T06:11:27;20.50;99.90
31809;DHT22;18379;48.208;-1.518;2022-08-14T06:16:28;20.30;99.90
31809;DHT22;18379;48.208;-1.518;2022-08-14T06:21:29;20.40;99.90
31809;DHT22;18379;48.208;-1.518;2022-08-14T06:26:30;20.20;99.90
31809;DHT22;18379;48.208;-1.518;2022-08-14T06:31:30;20.00;99.90
31809;DHT22;18379;48.208;-1.518;2022-08-14T06:36:31;20.10;99.90
31809;DHT22;18379;48.208;-1.518;2022-08-14T06:41:32;19.90;99.90
31809;DHT22;18379;48.208;-1.518;2022-08-14T06:46:33;20.00;99.90
31809;DHT22;18379;48.208;-1.518;2022-08-14T06:51:34;20.10;99.90
31809;DHT22;18379;48.208;-1.518;2022-08-14T06:56:35;19.80;99.90
31809;DHT22;18379;48.208;-1.518;2022-08-14T07:01:36;19.70;99.90
31809;DHT22;18379;48.208;-1.518;2022-08-14T07:06:55;19.90;99.90
31809;DHT22;18379;48.208;-1.518;2022-08-14T07:11:56;20.00;99.90
31809;DHT22;18379;48.208;-1.518;2022-08-14T07:16:56;20.20;99.90
31809;DHT22;18379;48.208;-1.518;2022-08-14T07:21:57;20.60;99.90
31809;DHT22;18379;48.208;-1.518;2022-08-14T07:26:59;20.80;99.90
31809;DHT22;18379;48.208;-1.518;2022-08-14T07:32:00;21.10;99.90
31809;DHT22;18379;48.208;-1.518;2022-08-14T07:37:00;21.20;99.90
31809;DHT22;18379;48.208;-1.518;2022-08-14T07:42:01;21.20;99.90
31809;DHT22;18379;48.208;-1.518;2022-08-14T07:47:02;21.00;99.90
31809;DHT22;18379;48.208;-1.518;2022-08-14T07:52:03;21.00;99.90
31809;DHT22;18379;48.208;-1.518;2022-08-14T07:57:04;21.00;99.90
31809;DHT22;18379;48.208;-1.518;2022-08-14T08:02:06;21.30;99.90
31809;DHT22;18379;48.208;-1.518;2022-08-14T08:07:08;21.40;99.90
31809;DHT22;18379;48.208;-1.518;2022-08-14T08:12:09;21.50;99.90
31809;DHT22;18379;48.208;-1.518;2022-08-14T08:17:11;21.50;99.90
31809;DHT22;18379;48.208;-1.518;2022-08-14T08:22:12;21.60;99.90
31809;DHT22;18379;48.208;-1.518;2022-08-14T08:27:17;21.50;99.90
31809;DHT22;18379;48.208;-1.518;2022-08-14T08:32:21;21.50;99.90
31809;DHT22;18379;48.208;-1.518;2022-08-14T08:37:28;21.50;99.90
31809;DHT22;18379;48.208;-1.518;2022-08-14T08:42:29;21.70;99.90
31809;DHT22;18379;48.208;-1.518;2022-08-14T08:48:18;21.80;99.90
31809;DHT22;18379;48.208;-1.518;2022-08-14T08:53:19;21.80;99.90
31809;DHT22;18379;48.208;-1.518;2022-08-14T09:04:07;21.90;99.90
31809;DHT22;18379;48.208;-1.518;2022-08-14T09:09:29;21.90;99.90
31809;DHT22;18379;48.208;-1.518;2022-08-14T09:14:31;21.90;99.90
31809;DHT22;18379;48.208;-1.518;2022-08-14T09:19:35;21.90;99.90
31809;DHT22;18379;48.208;-1.518;2022-08-14T09:24:36;21.60;99.90
31809;DHT22;18379;48.208;-1.518;2022-08-14T09:29:38;21.50;99.90
31809;DHT22;18379;48.208;-1.518;2022-08-14T09:45:47;21.30;99.90
31809;DHT22;18379;48.208;-1.518;2022-08-14T09:50:56;21.40;99.90
31809;DHT22;18379;48.208;-1.518;2022-08-14T09:55:58;21.40;99.90
31809;DHT22;18379;48.208;-1.518;2022-08-14T10:01:07;21.50;99.90
31809;DHT22;18379;48.208;-1.518;2022-08-14T10:06:14;21.50;99.90
31809;DHT22;18379;48.208;-1.518;2022-08-14T10:11:19;21.40;99.90
31809;DHT22;18379;48.208;-1.518;2022-08-14T10:16:26;21.30;99.90
31809;DHT22;18379;48.208;-1.518;2022-08-14T10:21:29;21.20;99.90
31809;DHT22;18379;48.208;-1.518;2022-08-14T10:26:30;21.40;99.90
31809;DHT22;18379;48.208;-1.518;2022-08-14T10:31:31;21.40;99.90
31809;DHT22;18379;48.208;-1.518;2022-08-14T10:36:39;21.40;99.90
31809;DHT22;18379;48.208;-1.518;2022-08-14T10:41:42;21.40;99.90
31809;DHT22;18379;48.208;-1.518;2022-08-14T10:46:45;21.50;99.90
31809;DHT22;18379;48.208;-1.518;2022-08-14T10:52:00;21.50;99.90
31809;DHT22;18379;48.208;-1.518;2022-08-14T10:57:23;21.60;99.90
31809;DHT22;18379;48.208;-1.518;2022-08-14T11:02:32;21.80;99.90
31809;DHT22;18379;48.208;-1.518;2022-08-14T11:07:35;21.80;99.90
31809;DHT22;18379;48.208;-1.518;2022-08-14T11:12:45;22.10;99.90
31809;DHT22;18379;48.208;-1.518;2022-08-14T11:17:50;22.20;99.90
31809;DHT22;18379;48.208;-1.518;2022-08-14T11:22:53;22.10;99.90
31809;DHT22;18379;48.208;-1.518;2022-08-14T11:27:56;21.90;99.90
31809;DHT22;18379;48.208;-1.518;2022-08-14T11:32:57;21.90;99.90
31809;DHT22;18379;48.208;-1.518;2022-08-14T11:38:00;21.90;99.90
31809;DHT22;18379;48.208;-1.518;2022-08-14T11:43:04;21.80;99.90
31809;DHT22;18379;48.208;-1.518;2022-08-14T11:48:18;21.90;99.90
31809;DHT22;18379;48.208;-1.518;2022-08-14T11:53:27;22.10;99.90
31809;DHT22;18379;48.208;-1.518;2022-08-14T11:58:34;22.00;99.90
31809;DHT22;18379;48.208;-1.518;2022-08-14T12:03:44;22.00;99.90
31809;DHT22;18379;48.208;-1.518;2022-08-14T12:08:54;21.90;99.90
31809;DHT22;18379;48.208;-1.518;2022-08-14T12:14:06;21.90;99.90
31809;DHT22;18379;48.208;-1.518;2022-08-14T12:19:12;21.90;99.90
31809;DHT22;18379;48.208;-1.518;2022-08-14T12:24:15;22.00;99.90
31809;DHT22;18379;48.208;-1.518;2022-08-14T12:29:15;22.30;99.90
31809;DHT22;18379;48.208;-1.518;2022-08-14T12:34:16;22.40;99.90
31809;DHT22;18379;48.208;-1.518;2022-08-14T12:39:21;22.50;99.90
31809;DHT22;18379;48.208;-1.518;2022-08-14T12:44:40;22.50;99.90
31809;DHT22;18379;48.208;-1.518;2022-08-14T12:49:52;22.60;99.90
31809;DHT22;18379;48.208;-1.518;2022-08-14T12:55:05;22.30;99.90
31809;DHT22;18379;48.208;-1.518;2022-08-14T13:00:21;22.40;99.90
31809;DHT22;18379;48.208;-1.518;2022-08-14T13:05:27;22.50;99.90
31809;DHT22;18379;48.208;-1.518;2022-08-14T13:10:33;22.50;99.90
31809;DHT22;18379;48.208;-1.518;2022-08-14T13:15:35;22.10;99.90
31809;DHT22;18379;48.208;-1.518;2022-08-14T13:20:39;22.00;99.90
31809;DHT22;18379;48.208;-1.518;2022-08-14T13:25:42;22.00;99.90
31809;DHT22;18379;48.208;-1.518;2022-08-14T13:30:44;21.90;99.90
31809;DHT22;18379;48.208;-1.518;2022-08-14T13:35:46;21.70;99.90
31809;DHT22;18379;48.208;-1.518;2022-08-14T13:40:54;21.60;99.90
31809;DHT22;18379;48.208;-1.518;2022-08-14T13:45:55;21.70;99.90
31809;DHT22;18379;48.208;-1.518;2022-08-14T13:50:57;21.80;99.90
31809;DHT22;18379;48.208;-1.518;2022-08-14T13:55:59;21.70;99.90
31809;DHT22;18379;48.208;-1.518;2022-08-14T14:01:01;21.50;99.90
31809;DHT22;18379;48.208;-1.518;2022-08-14T14:06:02;21.30;99.90
31809;DHT22;18379;48.208;-1.518;2022-08-14T14:11:04;21.10;99.90
31809;DHT22;18379;48.208;-1.518;2022-08-14T14:16:07;21.20;99.90
31809;DHT22;18379;48.208;-1.518;2022-08-14T14:21:09;21.30;99.90
31809;DHT22;18379;48.208;-1.518;2022-08-14T14:26:13;21.40;99.90
31809;DHT22;18379;48.208;-1.518;2022-08-14T14:36:59;21.70;99.90
31809;DHT22;18379;48.208;-1.518;2022-08-14T14:42:04;21.60;99.90
31809;DHT22;18379;48.208;-1.518;2022-08-14T14:47:09;21.40;99.90
31809;DHT22;18379;48.208;-1.518;2022-08-14T14:52:11;21.50;99.90
31809;DHT22;18379;48.208;-1.518;2022-08-14T14:57:12;21.40;99.90
31809;DHT22;18379;48.208;-1.518;2022-08-14T15:02:32;21.40;99.90
31809;DHT22;18379;48.208;-1.518;2022-08-14T15:07:37;21.50;99.90
31809;DHT22;18379;48.208;-1.518;2022-08-14T15:12:38;21.40;99.90
31809;DHT22;18379;48.208;-1.518;2022-08-14T15:17:39;21.60;99.90
31809;DHT22;18379;48.208;-1.518;2022-08-14T15:22:40;21.40;99.90
31809;DHT22;18379;48.208;-1.518;2022-08-14T15:27:41;21.50;99.90
31809;DHT22;18379;48.208;-1.518;2022-08-14T15:32:43;21.50;99.90
31809;DHT22;18379;48.208;-1.518;2022-08-14T15:37:44;21.30;99.90
31809;DHT22;18379;48.208;-1.518;2022-08-14T15:42:45;21.60;99.90
31809;DHT22;18379;48.208;-1.518;2022-08-14T15:47:46;21.60;99.90
31809;DHT22;18379;48.208;-1.518;2022-08-14T15:52:47;21.70;99.90
31809;DHT22;18379;48.208;-1.518;2022-08-14T15:57:49;21.60;99.90
31809;DHT22;18379;48.208;-1.518;2022-08-14T16:02:50;21.80;99.90
31809;DHT22;18379;48.208;-1.518;2022-08-14T16:07:54;21.80;99.90
31809;DHT22;18379;48.208;-1.518;2022-08-14T16:12:55;21.60;99.90
31809;DHT22;18379;48.208;-1.518;2022-08-14T16:17:56;21.80;99.90
31809;DHT22;18379;48.208;-1.518;2022-08-14T16:22:57;21.80;99.90
31809;DHT22;18379;48.208;-1.518;2022-08-14T16:27:59;21.70;99.90
31809;DHT22;18379;48.208;-1.518;2022-08-14T16:33:00;21.70;99.90
31809;DHT22;18379;48.208;-1.518;2022-08-14T16:38:04;21.70;99.90
31809;DHT22;18379;48.208;-1.518;2022-08-14T16:43:06;21.50;99.90
31809;DHT22;18379;48.208;-1.518;2022-08-14T16:48:07;21.30;99.90
31809;DHT22;18379;48.208;-1.518;2022-08-14T16:53:11;21.20;99.90
31809;DHT22;18379;48.208;-1.518;2022-08-14T16:58:20;21.20;99.90
31809;DHT22;18379;48.208;-1.518;2022-08-14T17:03:22;21.10;99.90
31809;DHT22;18379;48.208;-1.518;2022-08-14T17:08:27;21.10;99.90
31809;DHT22;18379;48.208;-1.518;2022-08-14T17:13:30;21.10;99.90
31809;DHT22;18379;48.208;-1.518;2022-08-14T17:18:40;21.20;99.90
31809;DHT22;18379;48.208;-1.518;2022-08-14T17:23:42;21.20;99.90
31809;DHT22;18379;48.208;-1.518;2022-08-14T17:28:43;21.30;99.90
31809;DHT22;18379;48.208;-1.518;2022-08-14T17:33:44;21.30;99.90
31809;DHT22;18379;48.208;-1.518;2022-08-14T17:38:58;21.30;99.90
31809;DHT22;18379;48.208;-1.518;2022-08-14T17:44:22;21.20;99.90
31809;DHT22;18379;48.208;-1.518;2022-08-14T17:49:29;21.20;99.90
31809;DHT22;18379;48.208;-1.518;2022-08-14T17:54:49;21.00;99.90
31809;DHT22;18379;48.208;-1.518;2022-08-14T17:59:51;21.00;99.90
31809;DHT22;18379;48.208;-1.518;2022-08-14T18:04:54;21.10;99.90
31809;DHT22;18379;48.208;-1.518;2022-08-14T18:09:57;21.30;99.90
31809;DHT22;18379;48.208;-1.518;2022-08-14T18:15:05;21.40;99.90
31809;DHT22;18379;48.208;-1.518;2022-08-14T18:20:13;21.50;99.90
31809;DHT22;18379;48.208;-1.518;2022-08-14T18:25:22;21.40;99.90
31809;DHT22;18379;48.208;-1.518;2022-08-14T18:30:31;21.30;99.90
31809;DHT22;18379;48.208;-1.518;2022-08-14T18:35:50;21.30;99.90
31809;DHT22;18379;48.208;-1.518;2022-08-14T18:40:53;21.40;99.90
31809;DHT22;18379;48.208;-1.518;2022-08-14T18:45:59;21.20;99.90
31809;DHT22;18379;48.208;-1.518;2022-08-14T18:51:02;21.20;99.90
31809;DHT22;18379;48.208;-1.518;2022-08-14T18:56:04;21.10;99.90
31809;DHT22;18379;48.208;-1.518;2022-08-14T19:01:06;21.10;99.90
31809;DHT22;18379;48.208;-1.518;2022-08-14T19:06:39;21.10;99.90
31809;DHT22;18379;48.208;-1.518;2022-08-14T19:11:42;21.20;99.90
31809;DHT22;18379;48.208;-1.518;2022-08-14T19:16:44;21.30;99.90
31809;DHT22;18379;48.208;-1.518;2022-08-14T19:21:55;21.20;99.90
31809;DHT22;18379;48.208;-1.518;2022-08-14T19:27:34;21.00;99.90
31809;DHT22;18379;48.208;-1.518;2022-08-14T19:32:37;21.00;99.90
31809;DHT22;18379;48.208;-1.518;2022-08-14T19:37:52;21.10;99.90
31809;DHT22;18379;48.208;-1.518;2022-08-14T19:42:54;21.30;99.90
31809;DHT22;18379;48.208;-1.518;2022-08-14T19:47:57;21.30;99.90
31809;DHT22;18379;48.208;-1.518;2022-08-14T19:53:02;21.30;99.90
31809;DHT22;18379;48.208;-1.518;2022-08-14T19:58:05;21.20;99.90
31809;DHT22;18379;48.208;-1.518;2022-08-14T20:03:07;21.20;99.90
31809;DHT22;18379;48.208;-1.518;2022-08-14T20:08:08;21.10;99.90
31809;DHT22;18379;48.208;-1.518;2022-08-14T20:13:10;21.10;99.90
31809;DHT22;18379;48.208;-1.518;2022-08-14T20:18:12;21.20;99.90
31809;DHT22;18379;48.208;-1.518;2022-08-14T20:23:16;21.30;99.90
31809;DHT22;18379;48.208;-1.518;2022-08-14T20:28:27;21.30;99.90
31809;DHT22;18379;48.208;-1.518;2022-08-14T20:33:31;21.30;99.90
31809;DHT22;18379;48.208;-1.518;2022-08-14T20:38:31;21.40;99.90
31809;DHT22;18379;48.208;-1.518;2022-08-14T20:43:35;21.50;99.90
31809;DHT22;18379;48.208;-1.518;2022-08-14T20:49:10;21.50;99.90
31809;DHT22;18379;48.208;-1.518;2022-08-14T20:54:21;21.50;99.90
31809;DHT22;18379;48.208;-1.518;2022-08-14T20:59:25;21.60;99.90
31809;DHT22;18379;48.208;-1.518;2022-08-14T21:04:30;21.50;99.90
31809;DHT22;18379;48.208;-1.518;2022-08-14T21:09:44;21.60;99.90
31809;DHT22;18379;48.208;-1.518;2022-08-14T21:14:46;21.60;99.90
31809;DHT22;18379;48.208;-1.518;2022-08-14T21:19:48;21.70;99.90
31809;DHT22;18379;48.208;-1.518;2022-08-14T21:24:49;21.70;99.90
31809;DHT22;18379;48.208;-1.518;2022-08-14T21:29:50;21.70;99.90
31809;DHT22;18379;48.208;-1.518;2022-08-14T21:34:53;21.50;99.90
31809;DHT22;18379;48.208;-1.518;2022-08-14T21:39:55;21.20;99.90
31809;DHT22;18379;48.208;-1.518;2022-08-14T21:44:58;21.00;99.90
31809;DHT22;18379;48.208;-1.518;2022-08-14T21:50:02;20.70;99.90
31809;DHT22;18379;48.208;-1.518;2022-08-14T21:55:11;20.90;99.90
31809;DHT22;18379;48.208;-1.518;2022-08-14T22:00:20;21.10;99.90
31809;DHT22;18379;48.208;-1.518;2022-08-14T22:05:22;21.30;99.90
31809;DHT22;18379;48.208;-1.518;2022-08-14T22:10:23;21.40;99.90
31809;DHT22;18379;48.208;-1.518;2022-08-14T22:15:25;21.60;99.90
31809;DHT22;18379;48.208;-1.518;2022-08-14T22:20:26;21.60;99.90
31809;DHT22;18379;48.208;-1.518;2022-08-14T22:25:28;21.50;99.90
31809;DHT22;18379;48.208;-1.518;2022-08-14T22:30:30;21.40;99.90
31809;DHT22;18379;48.208;-1.518;2022-08-14T22:35:31;21.30;99.90
31809;DHT22;18379;48.208;-1.518;2022-08-14T22:40:32;21.20;99.90
31809;DHT22;18379;48.208;-1.518;2022-08-14T22:45:33;21.10;99.90
31809;DHT22;18379;48.208;-1.518;2022-08-14T22:50:39;21.20;99.90
31809;DHT22;18379;48.208;-1.518;2022-08-14T22:55:41;21.20;99.90
31809;DHT22;18379;48.208;-1.518;2022-08-14T23:05:45;21.10;99.90
31809;DHT22;18379;48.208;-1.518;2022-08-14T23:10:45;21.10;99.90
31809;DHT22;18379;48.208;-1.518;2022-08-14T23:15:46;21.00;99.90
31809;DHT22;18379;48.208;-1.518;2022-08-14T23:20:47;21.00;99.90
31809;DHT22;18379;48.208;-1.518;2022-08-14T23:25:48;21.00;99.90
31809;DHT22;18379;48.208;-1.518;2022-08-14T23:30:48;21.00;99.90
31809;DHT22;18379;48.208;-1.518;2022-08-14T23:35:49;21.00;99.90
31809;DHT22;18379;48.208;-1.518;2022-08-14T23:40:51;21.00;99.90
31809;DHT22;18379;48.208;-1.518;2022-08-14T23:45:54;21.00;99.90
31809;DHT22;18379;48.208;-1.518;2022-08-14T23:50:55;21.00;99.90
31809;DHT22;18379;48.208;-1.518;2022-08-14T23:55:59;20.90;99.90
